TimeCDT,TemperatureF,Dew PointF,Humidity,Sea Level PressureIn,VisibilityMPH,Wind Direction,Wind SpeedMPH,Gust SpeedMPH,PrecipitationIn,Events,Conditions,WindDirDegrees,DateUTC
12:13 AM,71.6,68.0,88,29.84,10.0,Calm,Calm,-,N/A,,Clear,0,2012-06-30 05:13:00
12:33 AM,69.8,68.0,94,29.84,10.0,Calm,Calm,-,N/A,,Clear,0,2012-06-30 05:33:00
12:53 AM,69.8,66.2,88,29.85,10.0,NW,4.6,-,N/A,,Scattered Clouds,310,2012-06-30 05:53:00
1:13 AM,71.6,69.8,94,29.85,10.0,NW,3.5,-,N/A,,Scattered Clouds,310,2012-06-30 06:13:00
1:33 AM,69.8,68.0,94,29.85,10.0,Calm,Calm,-,N/A,,Scattered Clouds,0,2012-06-30 06:33:00
1:53 AM,69.8,66.2,88,29.85,10.0,Calm,Calm,-,N/A,,Clear,0,2012-06-30 06:53:00
2:13 AM,68.0,66.2,94,29.85,10.0,Calm,Calm,-,N/A,,Scattered Clouds,0,2012-06-30 07:13:00
2:33 AM,68.0,66.2,94,29.85,10.0,Calm,Calm,-,N/A,,Scattered Clouds,0,2012-06-30 07:33:00
2:53 AM,68.0,66.2,94,29.85,10.0,West,3.5,-,N/A,,Scattered Clouds,280,2012-06-30 07:53:00
3:13 AM,68.0,66.2,94,29.85,10.0,Calm,Calm,-,N/A,,Scattered Clouds,0,2012-06-30 08:13:00
3:33 AM,66.2,64.4,94,29.85,7.0,Calm,Calm,-,N/A,,Scattered Clouds,0,2012-06-30 08:33:00
3:53 AM,66.2,66.2,100,29.85,7.0,Calm,Calm,-,N/A,,Scattered Clouds,0,2012-06-30 08:53:00
4:13 AM,66.2,66.2,100,29.85,7.0,Calm,Calm,-,N/A,,Clear,0,2012-06-30 09:13:00
4:33 AM,66.2,66.2,100,29.85,10.0,NW,3.5,-,N/A,,Clear,320,2012-06-30 09:33:00
4:53 AM,66.2,64.4,94,29.86,10.0,Calm,Calm,-,N/A,,Clear,0,2012-06-30 09:53:00
5:13 AM,64.4,64.4,100,29.85,10.0,Calm,Calm,-,N/A,,Clear,0,2012-06-30 10:13:00
5:33 AM,66.2,64.4,94,29.86,10.0,Calm,Calm,-,N/A,,Clear,0,2012-06-30 10:33:00
6:13 AM,66.2,66.2,100,29.87,10.0,Calm,Calm,-,N/A,,Clear,0,2012-06-30 11:13:00
6:33 AM,68.0,68.0,100,29.87,10.0,NNW,3.5,-,N/A,,Clear,330,2012-06-30 11:33:00
6:53 AM,69.8,69.8,100,29.88,10.0,Calm,Calm,-,N/A,,Clear,0,2012-06-30 11:53:00
7:13 AM,71.6,69.8,94,29.88,10.0,NNW,3.5,-,N/A,,Clear,340,2012-06-30 12:13:00
7:33 AM,73.4,71.6,94,29.88,10.0,NNE,4.6,-,N/A,,Clear,20,2012-06-30 12:33:00
7:53 AM,73.4,71.6,94,29.88,10.0,NNE,5.8,-,N/A,,Clear,30,2012-06-30 12:53:00
8:13 AM,73.4,71.6,94,29.88,10.0,NE,4.6,-,N/A,,Clear,40,2012-06-30 13:13:00
8:33 AM,75.2,73.4,94,29.89,10.0,North,4.6,-,N/A,,Clear,10,2012-06-30 13:33:00
8:52 AM,75.2,71.6,89,29.90,10.0,NNE,4.6,-,N/A,,Clear,20,2012-06-30 13:52:00
9:13 AM,75.2,69.8,83,29.89,10.0,ENE,6.9,-,N/A,,Clear,70,2012-06-30 14:13:00
9:33 AM,77.0,66.2,69,29.88,10.0,ENE,5.8,-,N/A,,Clear,70,2012-06-30 14:33:00
9:52 AM,80.6,66.2,61,29.89,10.0,East,6.9,-,N/A,,Clear,80,2012-06-30 14:52:00
10:13 AM,80.6,66.2,61,29.90,10.0,ENE,4.6,-,N/A,,Clear,70,2012-06-30 15:13:00
10:33 AM,80.6,62.6,54,29.90,10.0,ENE,4.6,-,N/A,,Clear,70,2012-06-30 15:33:00
10:52 AM,82.4,60.8,48,29.90,10.0,NNE,5.8,-,N/A,,Clear,30,2012-06-30 15:52:00
11:13 AM,82.4,60.8,48,29.89,10.0,ENE,3.5,-,N/A,,Clear,70,2012-06-30 16:13:00
11:32 AM,84.2,62.6,48,29.89,10.0,East,4.6,-,N/A,,Clear,80,2012-06-30 16:32:00
11:53 AM,84.2,62.6,48,29.90,10.0,East,3.5,-,N/A,,Clear,90,2012-06-30 16:53:00
12:13 PM,86.0,62.6,45,29.89,10.0,East,3.5,-,N/A,,Clear,100,2012-06-30 17:13:00
12:33 PM,86.0,60.8,43,29.90,10.0,North,-9999.0,-,N/A,,Clear,0,2012-06-30 17:33:00
12:53 PM,86.0,59.0,40,29.90,10.0,Calm,Calm,-,N/A,,Clear,0,2012-06-30 17:53:00
1:13 PM,87.8,59.0,38,29.90,10.0,WSW,3.5,-,N/A,,Clear,250,2012-06-30 18:13:00
1:33 PM,87.8,57.2,35,29.90,10.0,NW,4.6,-,N/A,,Clear,320,2012-06-30 18:33:00
1:53 PM,89.6,57.2,33,29.89,10.0,WSW,4.6,-,N/A,,Clear,240,2012-06-30 18:53:00
2:13 PM,87.8,59.0,38,29.89,10.0,West,3.5,-,N/A,,Clear,260,2012-06-30 19:13:00
2:33 PM,87.8,57.2,35,29.88,10.0,North,5.8,-,N/A,,Clear,10,2012-06-30 19:33:00
2:53 PM,84.2,59.0,42,29.89,10.0,North,3.5,-,N/A,,Clear,360,2012-06-30 19:53:00
3:13 PM,82.4,59.0,45,29.85,10.0,East,4.6,-,N/A,,Clear,100,2012-06-30 20:13:00
3:33 PM,87.8,60.8,40,29.86,10.0,Calm,Calm,-,N/A,,Clear,0,2012-06-30 20:33:00
3:53 PM,89.6,60.8,38,29.86,10.0,Calm,Calm,-,N/A,,Clear,0,2012-06-30 20:53:00
4:13 PM,89.6,57.2,33,29.86,10.0,Calm,Calm,-,N/A,,Clear,0,2012-06-30 21:13:00
4:33 PM,89.6,60.8,38,29.85,10.0,Calm,Calm,-,N/A,,Clear,0,2012-06-30 21:33:00
4:53 PM,89.6,57.2,33,29.84,10.0,SE,4.6,-,N/A,,Clear,130,2012-06-30 21:53:00
5:13 PM,89.6,57.2,33,29.83,10.0,SSE,3.5,-,N/A,,Clear,160,2012-06-30 22:13:00
5:33 PM,89.6,59.0,36,29.84,10.0,Calm,Calm,-,N/A,,Clear,0,2012-06-30 22:33:00
5:53 PM,89.6,59.0,36,29.85,10.0,Calm,Calm,-,N/A,,Clear,0,2012-06-30 22:53:00
6:13 PM,91.4,57.2,31,29.85,10.0,Calm,Calm,-,N/A,,Clear,0,2012-06-30 23:13:00
6:33 PM,89.6,57.2,33,29.86,10.0,Calm,Calm,-,N/A,,Clear,0,2012-06-30 23:33:00
6:53 PM,89.6,60.8,38,29.87,10.0,Calm,Calm,-,N/A,,Clear,0,2012-06-30 23:53:00
7:13 PM,89.6,60.8,38,29.87,10.0,Calm,Calm,-,N/A,,Clear,0,2012-07-01 00:13:00
7:33 PM,87.8,60.8,40,29.88,10.0,Calm,Calm,-,N/A,,Clear,0,2012-07-01 00:33:00
7:52 PM,86.0,60.8,43,29.88,10.0,Calm,Calm,-,N/A,,Clear,0,2012-07-01 00:52:00
8:13 PM,82.4,60.8,48,29.88,10.0,Calm,Calm,-,N/A,,Clear,0,2012-07-01 01:13:00
8:33 PM,82.4,59.0,45,29.89,10.0,Calm,Calm,-,N/A,,Scattered Clouds,0,2012-07-01 01:33:00
8:52 PM,78.8,59.0,51,29.88,10.0,Calm,Calm,-,N/A,,Scattered Clouds,0,2012-07-01 01:52:00
9:13 PM,75.2,57.2,53,29.88,10.0,Calm,Calm,-,N/A,,Clear,0,2012-07-01 02:13:00
9:33 PM,75.2,57.2,53,29.88,10.0,Calm,Calm,-,N/A,,Clear,0,2012-07-01 02:33:00
10:13 PM,71.6,60.8,69,29.90,10.0,Calm,Calm,-,N/A,,Clear,0,2012-07-01 03:13:00
10:33 PM,71.6,60.8,69,29.91,10.0,Calm,Calm,-,N/A,,Clear,0,2012-07-01 03:33:00
10:52 PM,71.6,62.6,73,29.91,10.0,Calm,Calm,-,N/A,,Clear,0,2012-07-01 03:52:00
11:33 PM,71.6,59.0,64,29.89,10.0,Calm,Calm,-,N/A,,Clear,0,2012-07-01 04:33:00
11:52 PM,71.6,60.8,69,29.88,10.0,SE,6.9,-,N/A,,Clear,130,2012-07-01 04:52:00